createdAt,value
2022-08-09T00:00:04.345Z,69.16
2022-08-09T00:02:33.881Z,69.02
2022-08-09T00:06:12.069Z,69.32
2022-08-09T00:07:48.453Z,69.42
2022-08-09T00:10:21.153Z,69.45
2022-08-09T00:12:52.695Z,69.44
2022-08-09T00:15:26.752Z,69.85
2022-08-09T00:18:12.159Z,70.05
2022-08-09T00:20:42.524Z,70.65
2022-08-09T00:23:57.425Z,70.58
2022-08-09T00:26:06.940Z,70.60
2022-08-09T00:28:34.769Z,70.81
2022-08-09T00:31:09.227Z,70.28
2022-08-09T00:33:51.797Z,70.40
2022-08-09T00:36:19.544Z,70.75
2022-08-09T00:38:46.422Z,70.95
2022-08-09T00:44:10.643Z,70.88
2022-08-09T00:44:11.381Z,70.92
2022-08-09T00:46:57.712Z,70.92
2022-08-09T00:49:34.855Z,70.75
2022-08-09T00:52:15.826Z,70.61
2022-08-09T00:54:44.928Z,70.88
2022-08-09T00:57:11.697Z,71.32
2022-08-09T00:59:47.141Z,71.55
2022-08-09T01:02:22.453Z,71.27
2022-08-09T01:04:56.309Z,71.73
2022-08-09T01:07:37.953Z,71.59
2022-08-09T01:10:31.306Z,71.61
2022-08-09T01:13:04.148Z,71.34
2022-08-09T01:15:41.077Z,71.41
2022-08-09T01:18:29.980Z,71.79
2022-08-09T01:21:41.355Z,71.78
2022-08-09T01:24:40.053Z,71.25
2022-08-09T01:27:13.294Z,71.13
2022-08-09T01:29:55.515Z,71.13
2022-08-09T01:32:32.094Z,71.23
2022-08-09T01:35:07.245Z,70.73
2022-08-09T01:38:09.697Z,71.13
2022-08-09T01:40:42.574Z,70.81
2022-08-09T01:43:11.161Z,71.33
2022-08-09T01:45:44.848Z,71.41
2022-08-09T01:48:17.040Z,71.56
2022-08-09T01:50:55.056Z,72.09
2022-08-09T01:53:23.828Z,71.96
2022-08-09T01:55:57.203Z,71.72
2022-08-09T01:58:26.008Z,72.36
2022-08-09T02:00:57.942Z,72.17
2022-08-09T02:03:25.684Z,72.27
2022-08-09T02:06:03.879Z,72.32
2022-08-09T02:08:57.051Z,72.35
2022-08-09T02:11:43.603Z,72.50
2022-08-09T02:14:15.933Z,72.93
2022-08-09T02:17:15.237Z,72.93
2022-08-09T02:19:43.057Z,73.12
2022-08-09T02:22:34.837Z,73.47
2022-08-09T02:25:06.734Z,73.41
2022-08-09T02:27:57.486Z,73.41
2022-08-09T02:30:26.389Z,73.17
2022-08-09T02:32:55.299Z,72.65
2022-08-09T02:36:03.350Z,72.49
2022-08-09T02:38:22.133Z,72.75
2022-08-09T02:41:01.953Z,73.00
2022-08-09T02:43:53.967Z,73.27
2022-08-09T02:46:18.460Z,73.35
2022-08-09T02:48:46.836Z,72.99
2022-08-09T02:51:20.197Z,73.53
2022-08-09T02:53:59.678Z,73.67
2022-08-09T02:56:27.939Z,73.93
2022-08-09T02:58:55.637Z,74.01
2022-08-09T03:01:29.176Z,74.19
2022-08-09T03:04:17.131Z,73.81
2022-08-09T03:06:46.895Z,73.51
2022-08-09T03:09:17.648Z,73.39
2022-08-09T03:12:10.618Z,73.33
2022-08-09T03:14:32.900Z,73.01
2022-08-09T03:17:01.550Z,73.48
2022-08-09T03:19:57.774Z,73.02
2022-08-09T03:22:25.027Z,73.23
2022-08-09T03:25:06.332Z,73.37
2022-08-09T03:27:48.060Z,73.07
2022-08-09T03:30:29.281Z,73.88
2022-08-09T03:32:58.441Z,74.37
2022-08-09T03:36:13.617Z,74.58
2022-08-09T03:38:28.489Z,75.10
2022-08-09T03:40:55.561Z,74.68
2022-08-09T03:43:22.184Z,74.04
2022-08-09T03:46:05.159Z,74.06
2022-08-09T03:48:36.951Z,73.44
2022-08-09T03:51:56.771Z,73.74
2022-08-09T03:53:58.969Z,74.24
2022-08-09T03:56:26.440Z,74.17
2022-08-09T03:58:53.482Z,74.04
2022-08-09T04:01:22.476Z,74.23
2022-08-09T04:04:01.207Z,74.51
2022-08-09T04:06:29.533Z,74.45
2022-08-09T04:08:56.154Z,74.13
2022-08-09T04:11:22.604Z,74.52
2022-08-09T04:15:00.322Z,74.83
2022-08-09T04:16:38.944Z,74.66
2022-08-09T04:19:10.938Z,75.20
2022-08-09T04:21:43.044Z,75.20
2022-08-09T04:24:09.607Z,75.41
2022-08-09T04:26:38.421Z,75.57
2022-08-09T04:29:10.811Z,74.94
2022-08-09T04:31:47.184Z,75.34
2022-08-09T04:34:14.058Z,75.20
2022-08-09T04:36:50.101Z,75.24
2022-08-09T04:39:17.038Z,75.31
2022-08-09T04:41:44.201Z,75.39
2022-08-09T04:44:14.629Z,75.34
2022-08-09T04:46:58.402Z,75.67
2022-08-09T04:49:53.846Z,75.51
2022-08-09T04:52:26.211Z,75.42
2022-08-09T04:54:59.440Z,75.23
2022-08-09T04:57:26.830Z,75.82
2022-08-09T05:00:13.834Z,75.81
2022-08-09T05:02:44.253Z,75.84
2022-08-09T05:05:18.955Z,76.20
2022-08-09T05:10:25.699Z,76.15
2022-08-09T05:12:52.686Z,76.47
2022-08-09T05:15:24.606Z,76.58
2022-08-09T05:18:42.789Z,76.25
2022-08-09T05:20:52.157Z,76.63
2022-08-09T05:23:53.988Z,76.98
2022-08-09T05:26:05.274Z,76.52
2022-08-09T05:28:31.691Z,77.12
2022-08-09T05:30:58.855Z,76.67
2022-08-09T05:33:26.331Z,75.73
2022-08-09T05:35:59.501Z,71.30
2022-08-09T05:38:27.936Z,67.39
2022-08-09T05:40:54.531Z,62.11
2022-08-09T05:43:20.972Z,58.67
2022-08-09T05:45:55.796Z,60.70
2022-08-09T05:48:27.858Z,63.76
2022-08-09T05:51:16.851Z,62.99
2022-08-09T05:53:56.684Z,59.39
2022-08-09T05:56:26.067Z,58.06
2022-08-09T05:58:58.518Z,56.48
2022-08-09T06:01:33.723Z,50.77
2022-08-09T06:04:09.719Z,49.26
2022-08-09T06:06:40.774Z,52.34
2022-08-09T06:09:53.835Z,52.27
2022-08-09T06:11:59.078Z,50.75
2022-08-09T06:14:25.885Z,51.11
2022-08-09T06:16:52.820Z,51.38
2022-08-09T06:19:19.408Z,48.74
2022-08-09T06:21:51.542Z,44.96
2022-08-09T06:24:24.993Z,41.41
2022-08-09T06:26:51.451Z,42.04
2022-08-09T06:29:18.471Z,41.81
2022-08-09T06:32:08.812Z,42.05
2022-08-09T06:34:34.947Z,39.07
2022-08-09T06:37:03.181Z,36.00
2022-08-09T06:39:39.681Z,33.64
2022-08-09T06:42:15.994Z,32.43
2022-08-09T06:44:42.395Z,31.32
2022-08-09T06:47:09.996Z,29.73
2022-08-09T06:50:11.837Z,29.63
2022-08-09T06:52:37.952Z,31.33
2022-08-09T06:55:12.592Z,31.34
2022-08-09T06:58:01.805Z,32.58
2022-08-09T07:00:54.117Z,39.15
2022-08-09T07:03:13.325Z,42.99
2022-08-09T07:05:58.570Z,47.66
2022-08-09T07:08:26.855Z,50.37
2022-08-09T07:10:57.214Z,52.79
2022-08-09T07:13:29.373Z,53.84
2022-08-09T07:16:43.270Z,55.80
2022-08-09T07:18:44.292Z,57.28
2022-08-09T07:21:14.244Z,58.50
2022-08-09T07:23:46.684Z,59.87
2022-08-09T07:26:24.390Z,61.00
2022-08-09T07:29:09.211Z,60.72
2022-08-09T07:31:38.421Z,61.53
2022-08-09T07:34:05.516Z,61.83
2022-08-09T07:36:36.015Z,61.75
2022-08-09T07:39:03.103Z,58.62
2022-08-09T07:41:33.126Z,51.51
2022-08-09T07:44:05.619Z,45.31
2022-08-09T07:46:33.373Z,42.74
2022-08-09T07:49:04.033Z,41.44
2022-08-09T07:52:03.530Z,40.81
2022-08-09T07:54:30.101Z,39.66
2022-08-09T07:56:58.619Z,38.58
2022-08-09T07:59:34.599Z,39.49
2022-08-09T08:02:16.706Z,38.79
2022-08-09T08:04:48.957Z,37.54
2022-08-09T08:08:44.155Z,37.56
2022-08-09T08:10:08.617Z,35.52
2022-08-09T08:12:43.409Z,36.02
2022-08-09T08:15:16.912Z,38.25
2022-08-09T08:17:54.741Z,36.14
2022-08-09T08:20:29.298Z,34.88
2022-08-09T08:23:01.714Z,36.49
2022-08-09T08:25:44.546Z,36.48
2022-08-09T08:28:14.131Z,35.72
2022-08-09T08:30:41.890Z,35.59
2022-08-09T08:33:11.807Z,35.11
2022-08-09T08:35:59.663Z,35.62
2022-08-09T08:38:25.542Z,34.88
2022-08-09T08:40:56.600Z,32.85
2022-08-09T08:43:23.741Z,36.52
2022-08-09T08:46:24.917Z,34.41
2022-08-09T08:48:53.569Z,34.33
2022-08-09T08:51:23.037Z,36.70
2022-08-09T08:54:04.516Z,33.99
2022-08-09T08:56:36.159Z,34.67
2022-08-09T08:59:19.908Z,34.70
2022-08-09T09:01:52.309Z,33.37
2022-08-09T09:04:26.782Z,35.16
2022-08-09T09:06:58.062Z,35.80
2022-08-09T09:09:57.826Z,33.35
2022-08-09T09:12:18.058Z,32.82
2022-08-09T09:14:46.543Z,31.98
2022-08-09T09:17:16.379Z,33.75
2022-08-09T09:19:44.399Z,33.23
2022-08-09T09:22:15.920Z,32.34
2022-08-09T09:24:45.668Z,32.69
2022-08-09T09:28:04.421Z,32.57
2022-08-09T09:30:28.736Z,35.51
2022-08-09T09:33:13.753Z,33.59
2022-08-09T09:36:02.104Z,34.55
2022-08-09T09:38:44.700Z,34.37
2022-08-09T09:41:33.374Z,32.38
2022-08-09T09:44:39.667Z,34.04
2022-08-09T09:47:11.929Z,32.53
2022-08-09T09:50:07.516Z,34.67
2022-08-09T09:52:36.470Z,34.52
2022-08-09T09:55:24.392Z,32.57
2022-08-09T09:58:03.665Z,33.39
2022-08-09T10:00:33.688Z,33.79
2022-08-09T10:03:11.705Z,32.48
2022-08-09T10:06:04.757Z,34.07
2022-08-09T10:08:32.002Z,30.53
2022-08-09T10:10:58.627Z,33.82
2022-08-09T10:13:45.180Z,32.55
2022-08-09T10:16:57.312Z,30.88
2022-08-09T10:19:07.551Z,33.35
2022-08-09T10:21:45.625Z,31.91
2022-08-09T10:24:25.629Z,33.16
2022-08-09T10:27:02.917Z,32.64
2022-08-09T10:30:34.180Z,30.20
2022-08-09T10:32:42.827Z,33.32
2022-08-09T10:35:10.538Z,31.40
2022-08-09T10:37:40.276Z,30.11
2022-08-09T10:40:11.940Z,29.92
2022-08-09T10:42:55.959Z,30.36
2022-08-09T10:45:24.272Z,32.46
2022-08-09T10:48:26.254Z,31.89
2022-08-09T10:51:09.425Z,31.28
2022-08-09T10:53:46.955Z,29.58
2022-08-09T10:56:23.443Z,30.08
2022-08-09T10:58:55.161Z,31.83
2022-08-09T11:03:13.559Z,31.81
2022-08-09T11:04:31.411Z,30.69
2022-08-09T11:07:00.018Z,29.10
2022-08-09T11:09:41.125Z,29.98
2022-08-09T11:12:29.408Z,31.00
2022-08-09T11:15:19.535Z,31.51
2022-08-09T11:18:02.764Z,29.61
2022-08-09T11:20:45.609Z,30.19
2022-08-09T11:23:13.675Z,29.97
2022-08-09T11:25:47.625Z,29.33
2022-08-09T11:28:38.832Z,29.53
2022-08-09T11:31:49.105Z,30.12
2022-08-09T11:34:29.504Z,29.50
2022-08-09T11:36:58.665Z,30.36
2022-08-09T11:39:25.426Z,30.02
2022-08-09T11:42:08.090Z,31.39
2022-08-09T11:44:45.392Z,30.61
2022-08-09T11:47:14.529Z,29.28
2022-08-09T11:50:56.897Z,28.27
2022-08-09T11:53:15.592Z,30.38
2022-08-09T11:55:52.163Z,32.44
2022-08-09T11:58:30.313Z,31.79
2022-08-09T12:01:15.596Z,32.25
2022-08-09T12:04:00.809Z,31.79
2022-08-09T12:06:32.866Z,31.71
2022-08-09T12:09:19.529Z,32.12
2022-08-09T12:12:02.753Z,31.85
2022-08-09T12:14:40.826Z,32.72
2022-08-09T12:17:33.875Z,33.39
2022-08-09T12:20:16.677Z,33.90
2022-08-09T12:22:52.163Z,30.39
2022-08-09T12:25:36.157Z,31.03
2022-08-09T12:28:58.818Z,31.97
2022-08-09T12:31:59.406Z,31.33
2022-08-09T12:34:13.773Z,32.10
2022-08-09T12:36:58.656Z,33.31
2022-08-09T12:39:25.964Z,32.90
2022-08-09T12:41:54.664Z,29.80
2022-08-09T12:44:24.575Z,31.97
2022-08-09T12:46:51.422Z,32.71
2022-08-09T12:49:19.110Z,31.07
2022-08-09T12:52:02.022Z,32.36
2022-08-09T12:54:29.696Z,31.60
2022-08-09T12:56:58.843Z,31.19
2022-08-09T12:59:57.907Z,30.83
2022-08-09T13:02:17.795Z,31.87
2022-08-09T13:04:59.781Z,30.56
2022-08-09T13:07:50.908Z,31.48
2022-08-09T13:10:17.024Z,30.75
2022-08-09T13:13:09.013Z,31.02
2022-08-09T13:15:35.655Z,33.02
2022-08-09T13:18:05.693Z,33.96
2022-08-09T13:21:04.166Z,34.02
2022-08-09T13:24:07.153Z,31.03
2022-08-09T13:26:37.204Z,33.35
2022-08-09T13:29:07.501Z,33.19
2022-08-09T13:32:17.100Z,31.83
2022-08-09T13:34:21.052Z,32.36
2022-08-09T13:36:47.579Z,32.35
2022-08-09T13:41:18.910Z,31.43
2022-08-09T13:42:03.271Z,31.41
2022-08-09T13:44:30.773Z,31.43
2022-08-09T13:47:26.916Z,29.16
2022-08-09T13:49:57.347Z,31.81
2022-08-09T13:52:28.881Z,29.83
2022-08-09T13:55:00.100Z,30.33
2022-08-09T13:57:35.885Z,31.48
2022-08-09T14:00:28.328Z,31.95
2022-08-09T14:03:03.441Z,31.62
2022-08-09T14:05:59.643Z,33.44
2022-08-09T14:08:30.001Z,32.46
2022-08-09T14:10:59.588Z,32.95
2022-08-09T14:14:15.896Z,32.65
2022-08-09T14:16:16.513Z,32.48
2022-08-09T14:18:49.286Z,32.34
2022-08-09T14:21:18.482Z,33.10
2022-08-09T14:23:55.321Z,33.46
2022-08-09T14:26:32.748Z,33.82
2022-08-09T14:29:25.235Z,33.49
2022-08-09T14:31:58.210Z,34.46
2022-08-09T14:34:33.011Z,34.01
2022-08-09T14:37:08.829Z,33.43
2022-08-09T14:39:45.743Z,34.00
2022-08-09T14:42:28.729Z,33.27
2022-08-09T14:46:39.673Z,33.95
2022-08-09T14:47:57.524Z,34.11
2022-08-09T14:50:26.149Z,33.71
2022-08-09T14:52:53.475Z,34.22
2022-08-09T14:55:21.562Z,34.36
2022-08-09T14:57:49.048Z,35.49
2022-08-09T15:00:16.275Z,35.34
2022-08-09T15:02:47.122Z,35.50
2022-08-09T15:05:15.218Z,34.31
2022-08-09T15:07:45.358Z,34.64
2022-08-09T15:10:24.943Z,34.36
2022-08-09T15:12:52.585Z,34.68
2022-08-09T15:15:20.287Z,34.83
2022-08-09T15:17:52.555Z,34.06
2022-08-09T15:21:58.346Z,34.28
2022-08-09T15:24:01.275Z,34.26
2022-08-09T15:25:53.602Z,34.03
2022-08-09T15:28:26.016Z,35.35
2022-08-09T15:31:03.061Z,35.08
2022-08-09T15:34:19.545Z,34.78
2022-08-09T15:36:28.703Z,34.89
2022-08-09T15:38:57.160Z,34.16
2022-08-09T15:41:32.095Z,34.05
2022-08-09T15:44:00.564Z,34.60
2022-08-09T15:46:34.189Z,36.08
2022-08-09T15:49:23.561Z,35.41
2022-08-09T15:52:02.857Z,35.12
2022-08-09T15:54:44.308Z,35.34
2022-08-09T15:57:19.126Z,35.22
2022-08-09T16:00:01.405Z,34.15
2022-08-09T16:02:27.832Z,34.57
2022-08-09T16:04:54.454Z,34.47
2022-08-09T16:07:20.953Z,35.28
2022-08-09T16:09:57.953Z,34.73
2022-08-09T16:12:32.142Z,34.60
2022-08-09T16:14:59.075Z,35.41
2022-08-09T16:17:28.731Z,35.15
2022-08-09T16:20:04.807Z,35.66
2022-08-09T16:22:42.298Z,35.81
2022-08-09T16:25:15.935Z,36.70
2022-08-09T16:27:42.544Z,36.04
2022-08-09T16:30:14.946Z,38.04
2022-08-09T16:33:04.118Z,39.18
2022-08-09T16:35:55.765Z,40.25
2022-08-09T16:38:18.511Z,39.71
2022-08-09T16:40:45.173Z,38.33
2022-08-09T16:43:12.181Z,38.87
2022-08-09T16:45:45.256Z,38.00
2022-08-09T16:48:39.162Z,37.86
2022-08-09T16:51:07.874Z,37.36
2022-08-09T16:53:36.283Z,37.30
2022-08-09T16:56:10.124Z,36.77
2022-08-09T16:58:39.653Z,38.06
2022-08-09T17:01:09.288Z,39.18
2022-08-09T17:03:37.149Z,38.38
2022-08-09T17:06:28.103Z,38.46
2022-08-09T17:08:59.014Z,39.29
2022-08-09T17:11:32.991Z,38.28
2022-08-09T17:14:08.476Z,38.32
2022-08-09T17:16:53.485Z,38.67
2022-08-09T17:19:20.831Z,39.45
2022-08-09T17:21:47.752Z,39.36
2022-08-09T17:24:30.302Z,39.86
2022-08-09T17:26:59.643Z,39.70
2022-08-09T17:29:31.636Z,39.41
2022-08-09T17:32:04.434Z,39.47
2022-08-09T17:35:02.046Z,39.78
2022-08-09T17:37:19.284Z,39.69
2022-08-09T17:39:52.579Z,39.81
2022-08-09T17:42:42.107Z,40.04
2022-08-09T17:45:15.964Z,40.21
2022-08-09T17:47:55.619Z,40.18
2022-08-09T17:50:36.025Z,40.81
2022-08-09T17:53:10.290Z,40.95
2022-08-09T17:55:50.215Z,40.48
2022-08-09T17:58:19.076Z,41.08
2022-08-09T18:00:48.155Z,41.59
2022-08-09T18:03:17.606Z,42.21
2022-08-09T18:05:44.595Z,41.88
2022-08-09T18:08:13.239Z,42.27
2022-08-09T18:10:46.140Z,42.73
2022-08-09T18:13:43.000Z,42.47
2022-08-09T18:16:14.210Z,43.44
2022-08-09T18:18:49.340Z,43.45
2022-08-09T18:21:23.038Z,43.60
2022-08-09T18:24:09.633Z,43.84
2022-08-09T18:26:37.888Z,44.40
2022-08-09T18:30:41.579Z,44.25
2022-08-09T18:31:56.346Z,45.07
2022-08-09T18:34:23.873Z,45.79
2022-08-09T18:36:53.363Z,46.03
2022-08-09T18:39:22.440Z,46.47
2022-08-09T18:41:53.055Z,46.71
2022-08-09T18:44:25.656Z,47.31
2022-08-09T18:47:07.699Z,47.83
2022-08-09T18:49:46.585Z,48.16
2022-08-09T18:52:28.418Z,48.23
2022-08-09T18:55:13.486Z,48.37
2022-08-09T18:57:43.444Z,48.72
2022-08-09T19:00:16.675Z,48.71
2022-08-09T19:02:48.242Z,49.25
2022-08-09T19:05:19.707Z,49.62
2022-08-09T19:08:04.920Z,49.86
2022-08-09T19:10:36.940Z,49.78
2022-08-09T19:13:20.650Z,50.52
2022-08-09T19:15:51.197Z,50.24
2022-08-09T19:18:34.109Z,50.20
2022-08-09T19:21:09.117Z,50.72
2022-08-09T19:24:32.489Z,50.94
2022-08-09T19:26:31.815Z,51.07
2022-08-09T19:29:17.684Z,51.22
2022-08-09T19:31:51.327Z,51.37
2022-08-09T19:34:24.418Z,51.65
2022-08-09T19:36:53.019Z,52.30
2022-08-09T19:39:43.045Z,52.37
2022-08-09T19:42:08.351Z,51.85
2022-08-09T19:44:35.513Z,52.31
2022-08-09T19:47:02.632Z,52.12
2022-08-09T19:50:07.863Z,52.57
2022-08-09T19:52:22.096Z,52.50
2022-08-09T19:54:50.750Z,52.24
2022-08-09T19:57:17.337Z,52.55
2022-08-09T20:00:05.501Z,52.34
2022-08-09T20:04:23.611Z,52.73
2022-08-09T20:05:17.018Z,53.08
2022-08-09T20:07:58.785Z,53.48
2022-08-09T20:10:34.851Z,53.69
2022-08-09T20:13:05.182Z,53.92
2022-08-09T20:16:38.343Z,54.21
2022-08-09T20:18:18.812Z,54.31
2022-08-09T20:20:46.583Z,54.16
2022-08-09T20:23:13.334Z,54.32
2022-08-09T20:25:52.118Z,54.47
2022-08-09T20:28:27.597Z,54.79
2022-08-09T20:31:02.665Z,54.74
2022-08-09T20:33:41.205Z,54.74
2022-08-09T20:36:14.166Z,55.14
2022-08-09T20:41:34.914Z,55.15
2022-08-09T20:44:06.802Z,55.65
2022-08-09T20:46:44.187Z,55.59
2022-08-09T20:49:12.262Z,56.05
2022-08-09T20:51:40.972Z,56.40
2022-08-09T20:54:08.400Z,56.41
2022-08-09T20:56:39.572Z,56.77
2022-08-09T20:59:07.688Z,57.11
2022-08-09T21:01:51.478Z,57.51
2022-08-09T21:05:55.220Z,57.57
2022-08-09T21:07:11.434Z,57.56
2022-08-09T21:09:41.869Z,57.54
2022-08-09T21:14:41.911Z,57.54
2022-08-09T21:18:22.454Z,57.31
2022-08-09T21:20:18.833Z,57.33
2022-08-09T21:22:47.063Z,57.28
2022-08-09T21:25:38.363Z,57.08
2022-08-09T21:28:07.401Z,57.05
2022-08-09T21:30:40.483Z,57.38
2022-08-09T21:33:08.170Z,57.40
2022-08-09T21:35:40.844Z,57.61
2022-08-09T21:38:31.023Z,57.66
2022-08-09T21:40:59.094Z,57.53
2022-08-09T21:43:55.987Z,57.62
2022-08-09T21:46:12.288Z,58.00
2022-08-09T21:48:42.729Z,57.90
2022-08-09T21:51:24.018Z,58.06
2022-08-09T21:53:54.433Z,58.24
2022-08-09T21:56:33.960Z,58.23
2022-08-09T21:59:09.384Z,58.44
2022-08-09T22:01:59.374Z,58.34
2022-08-09T22:04:22.782Z,58.11
2022-08-09T22:07:09.283Z,58.10
2022-08-09T22:09:38.624Z,58.16
2022-08-09T22:12:18.314Z,58.63
2022-08-09T22:14:46.003Z,58.42
2022-08-09T22:17:13.148Z,58.63
2022-08-09T22:19:58.589Z,58.80
2022-08-09T22:22:27.590Z,58.83
2022-08-09T22:26:07.324Z,58.90
2022-08-09T22:27:42.143Z,59.01
2022-08-09T22:30:09.608Z,58.82
2022-08-09T22:32:36.028Z,59.07
2022-08-09T22:35:06.902Z,59.07
2022-08-09T22:38:06.680Z,59.24
2022-08-09T22:40:34.407Z,59.31
2022-08-09T22:43:01.220Z,59.42
2022-08-09T22:48:10.964Z,59.32
2022-08-09T22:48:35.609Z,59.22
2022-08-09T22:51:10.751Z,59.17
2022-08-09T22:53:58.409Z,59.27
2022-08-09T22:56:33.809Z,59.51
2022-08-09T22:59:05.682Z,59.30
2022-08-09T23:01:32.959Z,59.37
2022-08-09T23:04:05.822Z,59.33
2022-08-09T23:06:52.053Z,59.64
2022-08-09T23:09:18.892Z,59.58
2022-08-09T23:11:45.394Z,59.92
2022-08-09T23:14:17.355Z,59.88
2022-08-09T23:16:44.545Z,60.00
2022-08-09T23:19:11.165Z,60.26
2022-08-09T23:21:38.484Z,59.82
2022-08-09T23:24:07.167Z,59.60
2022-08-09T23:26:38.532Z,60.02
2022-08-09T23:29:07.256Z,60.09
2022-08-09T23:31:34.417Z,60.02
2022-08-09T23:34:03.879Z,60.05
2022-08-09T23:36:30.685Z,60.51
2022-08-09T23:38:57.182Z,60.29
2022-08-09T23:41:28.530Z,60.59
2022-08-09T23:44:00.244Z,60.73
2022-08-09T23:46:29.382Z,60.71
2022-08-09T23:48:56.733Z,60.46
2022-08-09T23:51:23.278Z,60.97
2022-08-09T23:53:51.480Z,60.78
2022-08-09T23:56:21.854Z,61.33
2022-08-09T23:59:06.238Z,61.04
